• Join FlightAware (Why Join?)
  • Login
  • US Flag 
05:24AM EDT


 

Airport Tracker/Info


-or-


 

Live Flight TrackerFlight Track Log ✈ QXE2086 ✈ 09-Sep-2013 ✈ KSEA - KALW

Flight Track Log - Related Links

Times and Time Zones

All times are in EDT time to prevent confusion due to time zone crossing. See the QXE2086 flight status page for this flight to view local times or setup timezone preferences in your user account.

Time Position Orientation Groundspeed Altitude Reporting Facility
EDT Latitude Longitude Course Direction KTS MPH feet Rate Location/Type
10:44PM 47.2514 -121.6820 109° East  Level Estimated
10:45PM 47.2180 -121.5774 109° East  Level Estimated
10:46PM 47.1986 -121.4656 104° East  Level FlightAware Approximate
10:47PM 47.1791 -121.3538 104° East  Level FlightAware Approximate
10:48PM 47.1594 -121.2421 104° East  Level FlightAware Approximate
10:49PM 47.1242 -121.1390 109° East  Level Estimated
10:50PM 47.1038 -121.0277 105° East  Level FlightAware Approximate
10:51PM 47.0833 -120.9165 105° East  Level FlightAware Approximate
10:52PM 47.0507 -120.8256 118° Southeast  Level Estimated
10:53PM 47.0180 -120.7348 118° Southeast  Level Estimated
10:54PM 46.9852 -120.6441 118° Southeast  Level Estimated
10:55PM 46.9524 -120.5536 118° Southeast  Level Estimated
10:56PM 46.9195 -120.4631 118° Southeast  Level Estimated
10:57PM 46.8865 -120.3727 118° Southeast  Level Estimated
10:58PM 46.8535 -120.2825 118° Southeast  Level Estimated
10:59PM 46.8204 -120.1923 118° Southeast  Level Estimated
11:00PM 46.7872 -120.1023 118° Southeast  Level Estimated
11:01PM 46.7540 -120.0124 118° Southeast  Level Estimated
11:02PM 46.7206 -119.9226 118° Southeast  Level Estimated
11:03PM 46.6872 -119.8329 118° Southeast  Level Estimated
11:04PM 46.6538 -119.7433 119° Southeast  Level Estimated
11:05PM 46.6203 -119.6538 119° Southeast  Level Estimated
11:06PM 46.5867 -119.5645 119° Southeast  Level Estimated
11:07PM 46.5530 -119.4752 119° Southeast  Level Estimated
11:08PM 46.5192 -119.3861 119° Southeast  Level Estimated
11:09PM 46.4854 -119.2971 119° Southeast  Level Estimated
11:10PM 46.4516 -119.2082 119° Southeast  Level Estimated
11:11PM 46.4176 -119.1193 119° Southeast  Level Estimated
11:12PM 46.3836 -119.0306 119° Southeast  Level Estimated
11:13PM 46.3461 -118.9332 119° Southeast  Level Estimated
11:14PM 46.3085 -118.8359 119° Southeast  Level Estimated
11:15PM 46.2709 -118.7387 119° Southeast  Level Estimated
11:16PM 46.2331 -118.6417 119° Southeast  Level Estimated
11:17PM 46.1953 -118.5448 119° Southeast  Level Estimated
11:18PM 46.1574 -118.4480 119° Southeast  Level Estimated
11:19PM 46.1194 -118.3514 120° Southeast  Level Estimated
11:20PM 46.0948 -118.2890 120° Southeast  Level Estimated
11:21PM 46.0948 -118.2890 180° South  Level Estimated
11:22PM 46.0948 -118.2890 180° South  Level Estimated